sensor_id;sensor_type;location;lat;lon;timestamp;pressure;altitude;pressure_sealevel;temperature;humidity
60319;BME280;46163;52.306;5.634;2022-12-24T00:00:24;100285.63;;;17.41;56.51
60319;BME280;46163;52.306;5.634;2022-12-24T00:02:49;100295.56;;;17.41;56.15
60319;BME280;46163;52.306;5.634;2022-12-24T00:05:18;100304.72;;;17.40;56.29
60319;BME280;46163;52.306;5.634;2022-12-24T00:07:43;100307.69;;;17.38;56.24
60319;BME280;46163;52.306;5.634;2022-12-24T00:10:10;100310.38;;;17.38;56.13
60319;BME280;46163;52.306;5.634;2022-12-24T00:12:38;100295.72;;;17.24;56.16
60319;BME280;46163;52.306;5.634;2022-12-24T00:15:04;100318.66;;;17.37;56.23
60319;BME280;46163;52.306;5.634;2022-12-24T00:17:32;100318.94;;;17.35;56.26
60319;BME280;46163;52.306;5.634;2022-12-24T00:19:58;100328.06;;;17.34;56.33
60319;BME280;46163;52.306;5.634;2022-12-24T00:22:25;100324.84;;;17.32;56.19
60319;BME280;46163;52.306;5.634;2022-12-24T00:24:53;100321.59;;;17.30;56.24
60319;BME280;46163;52.306;5.634;2022-12-24T00:27:19;100308.56;;;17.17;56.43
60319;BME280;46163;52.306;5.634;2022-12-24T00:29:44;100334.22;;;17.30;56.21
60319;BME280;46163;52.306;5.634;2022-12-24T00:32:10;100328.28;;;17.28;56.29
60319;BME280;46163;52.306;5.634;2022-12-24T00:34:38;100327.72;;;17.26;56.13
60319;BME280;46163;52.306;5.634;2022-12-24T00:37:04;100337.69;;;17.25;56.19
60319;BME280;46163;52.306;5.634;2022-12-24T00:39:30;100331.22;;;17.26;56.07
60319;BME280;46163;52.306;5.634;2022-12-24T00:41:56;100334.38;;;17.18;56.00
60319;BME280;46163;52.306;5.634;2022-12-24T00:44:24;100348.16;;;17.21;56.17
60319;BME280;46163;52.306;5.634;2022-12-24T00:46:49;100347.34;;;17.21;56.19
60319;BME280;46163;52.306;5.634;2022-12-24T00:49:15;100345.69;;;17.20;56.18
60319;BME280;46163;52.306;5.634;2022-12-24T00:51:41;100350.22;;;17.14;55.98
60319;BME280;46163;52.306;5.634;2022-12-24T00:54:08;100356.16;;;17.16;56.14
60319;BME280;46163;52.306;5.634;2022-12-24T00:56:33;100356.69;;;17.13;56.13
60319;BME280;46163;52.306;5.634;2022-12-24T00:58:59;100365.84;;;17.17;55.93
60319;BME280;46163;52.306;5.634;2022-12-24T01:01:26;100368.53;;;17.17;56.06
60319;BME280;46163;52.306;5.634;2022-12-24T01:03:52;100382.25;;;17.16;55.85
60319;BME280;46163;52.306;5.634;2022-12-24T01:06:38;100393.25;;;17.14;55.93
60319;BME280;46163;52.306;5.634;2022-12-24T01:09:03;100391.38;;;17.15;56.01
60319;BME280;46163;52.306;5.634;2022-12-24T01:11:29;100398.63;;;17.14;56.04
60319;BME280;46163;52.306;5.634;2022-12-24T01:13:55;100387.56;;;17.11;55.83
60319;BME280;46163;52.306;5.634;2022-12-24T01:16:20;100406.16;;;17.12;56.03
60319;BME280;46163;52.306;5.634;2022-12-24T01:18:46;100413.09;;;17.08;55.95
60319;BME280;46163;52.306;5.634;2022-12-24T01:21:11;100413.63;;;17.10;55.80
60319;BME280;46163;52.306;5.634;2022-12-24T01:23:37;100424.38;;;17.10;56.00
60319;BME280;46163;52.306;5.634;2022-12-24T01:26:03;100420.88;;;17.10;56.01
60319;BME280;46163;52.306;5.634;2022-12-24T01:28:30;100427.34;;;17.09;56.05
60319;BME280;46163;52.306;5.634;2022-12-24T01:30:58;100433.78;;;17.08;55.81
60319;BME280;46163;52.306;5.634;2022-12-24T01:33:27;100436.47;;;17.08;55.89
60319;BME280;46163;52.306;5.634;2022-12-24T01:35:53;100439.69;;;17.05;55.80
60319;BME280;46163;52.306;5.634;2022-12-24T01:38:18;100444.25;;;17.04;55.91
60319;BME280;46163;52.306;5.634;2022-12-24T01:40:44;100443.91;;;17.01;55.69
60319;BME280;46163;52.306;5.634;2022-12-24T01:43:31;100446.34;;;17.02;55.74
60319;BME280;46163;52.306;5.634;2022-12-24T01:46:15;100449.00;;;16.97;55.98
60319;BME280;46163;52.306;5.634;2022-12-24T01:48:55;100439.59;;;17.00;55.83
60319;BME280;46163;52.306;5.634;2022-12-24T01:51:56;100457.91;;;17.03;55.74
60319;BME280;46163;52.306;5.634;2022-12-24T01:54:18;100454.66;;;17.01;55.74
60319;BME280;46163;52.306;5.634;2022-12-24T01:56:49;100462.72;;;17.01;55.87
60319;BME280;46163;52.306;5.634;2022-12-24T01:59:17;100456.25;;;16.97;55.89
60319;BME280;46163;52.306;5.634;2022-12-24T02:01:45;100472.94;;;16.99;55.85
60319;BME280;46163;52.306;5.634;2022-12-24T02:05:34;100482.88;;;16.98;55.72
60319;BME280;46163;52.306;5.634;2022-12-24T02:07:27;100464.25;;;16.91;55.74
60319;BME280;46163;52.306;5.634;2022-12-24T02:09:56;100480.94;;;16.93;55.70
60319;BME280;46163;52.306;5.634;2022-12-24T02:12:23;100489.00;;;16.93;55.64
60319;BME280;46163;52.306;5.634;2022-12-24T02:14:49;100487.69;;;16.96;55.60
60319;BME280;46163;52.306;5.634;2022-12-24T02:17:20;100501.41;;;16.94;55.64
60319;BME280;46163;52.306;5.634;2022-12-24T02:22:16;100506.19;;;16.92;55.75
60319;BME280;46163;52.306;5.634;2022-12-24T02:30:23;100519.06;;;16.90;55.53
60319;BME280;46163;52.306;5.634;2022-12-24T02:32:57;100520.94;;;16.90;55.54
60319;BME280;46163;52.306;5.634;2022-12-24T02:35:33;100521.75;;;16.90;55.47
60319;BME280;46163;52.306;5.634;2022-12-24T02:38:13;100514.75;;;16.89;55.69
60319;BME280;46163;52.306;5.634;2022-12-24T02:40:47;100519.31;;;16.89;55.45
60319;BME280;46163;52.306;5.634;2022-12-24T02:43:20;100530.34;;;16.87;55.29
60319;BME280;46163;52.306;5.634;2022-12-24T02:45:53;100535.72;;;16.87;55.60
60319;BME280;46163;52.306;5.634;2022-12-24T02:48:21;100523.44;;;16.75;55.61
60319;BME280;46163;52.306;5.634;2022-12-24T02:51:00;100524.25;;;16.75;55.46
60319;BME280;46163;52.306;5.634;2022-12-24T02:53:26;100542.63;;;16.83;55.57
60319;BME280;46163;52.306;5.634;2022-12-24T03:01:43;100549.63;;;16.84;55.52
60319;BME280;46163;52.306;5.634;2022-12-24T03:07:25;100549.00;;;16.77;55.47
60319;BME280;46163;52.306;5.634;2022-12-24T03:14:55;100549.81;;;16.78;55.41
60319;BME280;46163;52.306;5.634;2022-12-24T03:17:21;100554.69;;;16.81;55.47
60319;BME280;46163;52.306;5.634;2022-12-24T03:19:47;100558.19;;;16.81;55.38
60319;BME280;46163;52.306;5.634;2022-12-24T03:22:14;100561.13;;;16.80;55.28
60319;BME280;46163;52.306;5.634;2022-12-24T03:24:40;100548.69;;;16.74;55.35
60319;BME280;46163;52.306;5.634;2022-12-24T03:27:06;100549.50;;;16.74;55.34
60319;BME280;46163;52.306;5.634;2022-12-24T03:29:33;100561.38;;;16.78;55.33
60319;BME280;46163;52.306;5.634;2022-12-24T03:32:05;100563.25;;;16.78;55.37
60319;BME280;46163;52.306;5.634;2022-12-24T03:34:30;100560.81;;;16.76;55.42
60319;BME280;46163;52.306;5.634;2022-12-24T03:36:56;100573.41;;;16.76;55.27
60319;BME280;46163;52.306;5.634;2022-12-24T03:39:22;100578.81;;;16.76;55.19
60319;BME280;46163;52.306;5.634;2022-12-24T03:41:48;100571.81;;;16.75;55.39
60319;BME280;46163;52.306;5.634;2022-12-24T03:44:14;100571.00;;;16.74;55.42
60319;BME280;46163;52.306;5.634;2022-12-24T03:46:39;100569.88;;;16.70;55.29
60319;BME280;46163;52.306;5.634;2022-12-24T03:49:05;100568.69;;;16.66;55.21
60319;BME280;46163;52.306;5.634;2022-12-24T03:51:33;100587.63;;;16.71;55.17
60319;BME280;46163;52.306;5.634;2022-12-24T03:53:58;100581.44;;;16.71;55.35
60319;BME280;46163;52.306;5.634;2022-12-24T03:56:25;100575.25;;;16.70;55.22
60319;BME280;46163;52.306;5.634;2022-12-24T03:58:51;100584.38;;;16.69;55.40
60319;BME280;46163;52.306;5.634;2022-12-24T04:01:17;100577.81;;;16.65;55.27
60319;BME280;46163;52.306;5.634;2022-12-24T04:03:43;100579.44;;;16.66;55.26
60319;BME280;46163;52.306;5.634;2022-12-24T04:06:11;100584.00;;;16.65;55.25
60319;BME280;46163;52.306;5.634;2022-12-24T04:08:37;100578.63;;;16.65;55.43
60319;BME280;46163;52.306;5.634;2022-12-24T04:11:05;100571.19;;;16.51;55.22
60319;BME280;46163;52.306;5.634;2022-12-24T04:13:30;100590.69;;;16.63;55.20
60319;BME280;46163;52.306;5.634;2022-12-24T04:16:05;100597.13;;;16.62;55.34
60319;BME280;46163;52.306;5.634;2022-12-24T04:18:31;100605.19;;;16.62;55.29
60319;BME280;46163;52.306;5.634;2022-12-24T04:20:57;100589.06;;;16.62;55.11
60319;BME280;46163;52.306;5.634;2022-12-24T04:23:23;100592.81;;;16.61;55.27
60319;BME280;46163;52.306;5.634;2022-12-24T04:25:49;100599.47;;;16.58;55.26
60319;BME280;46163;52.306;5.634;2022-12-24T04:28:15;100599.41;;;16.53;55.27
60319;BME280;46163;52.306;5.634;2022-12-24T04:30:41;100606.72;;;16.58;55.02
60319;BME280;46163;52.306;5.634;2022-12-24T04:33:07;100612.09;;;16.58;55.20
60319;BME280;46163;52.306;5.634;2022-12-24T04:35:32;100613.97;;;16.57;55.32
60319;BME280;46163;52.306;5.634;2022-12-24T04:37:58;100615.84;;;16.57;55.31
60319;BME280;46163;52.306;5.634;2022-12-24T04:40:26;100613.97;;;16.57;55.42
60319;BME280;46163;52.306;5.634;2022-12-24T04:42:51;100614.78;;;16.58;55.21
60319;BME280;46163;52.306;5.634;2022-12-24T04:45:17;100619.34;;;16.57;55.18
60319;BME280;46163;52.306;5.634;2022-12-24T04:47:43;100625.53;;;16.58;55.39
60319;BME280;46163;52.306;5.634;2022-12-24T04:50:09;100627.75;;;16.61;55.22
60319;BME280;46163;52.306;5.634;2022-12-24T04:52:35;100623.19;;;16.61;55.28
60319;BME280;46163;52.306;5.634;2022-12-24T04:55:01;100622.44;;;16.66;55.20
60319;BME280;46163;52.306;5.634;2022-12-24T04:57:31;100623.03;;;16.68;55.26
60319;BME280;46163;52.306;5.634;2022-12-24T04:59:58;100616.13;;;16.72;55.20
60319;BME280;46163;52.306;5.634;2022-12-24T05:02:23;100614.53;;;16.76;55.13
60319;BME280;46163;52.306;5.634;2022-12-24T05:04:49;100605.38;;;16.72;54.81
60319;BME280;46163;52.306;5.634;2022-12-24T05:07:14;100614.78;;;16.91;54.85
60319;BME280;46163;52.306;5.634;2022-12-24T05:09:40;100618.09;;;16.99;54.82
60319;BME280;46163;52.306;5.634;2022-12-24T05:12:05;100628.44;;;17.07;54.56
60319;BME280;46163;52.306;5.634;2022-12-24T05:14:31;100625.88;;;17.17;54.32
60319;BME280;46163;52.306;5.634;2022-12-24T05:16:59;100623.81;;;17.24;54.22
60319;BME280;46163;52.306;5.634;2022-12-24T05:19:24;100610.91;;;17.26;54.16
60319;BME280;46163;52.306;5.634;2022-12-24T05:21:50;100612.63;;;17.32;53.77
60319;BME280;46163;52.306;5.634;2022-12-24T05:24:35;100617.56;;;17.40;53.55
60319;BME280;46163;52.306;5.634;2022-12-24T05:27:19;100621.44;;;17.49;53.50
60319;BME280;46163;52.306;5.634;2022-12-24T05:29:47;100623.94;;;17.56;53.35
60319;BME280;46163;52.306;5.634;2022-12-24T05:32:13;100627.47;;;17.62;53.28
60319;BME280;46163;52.306;5.634;2022-12-24T05:34:38;100632.94;;;17.67;53.10
60319;BME280;46163;52.306;5.634;2022-12-24T05:37:04;100632.44;;;17.70;53.03
60319;BME280;46163;52.306;5.634;2022-12-24T05:39:29;100632.78;;;17.73;52.93
60319;BME280;46163;52.306;5.634;2022-12-24T05:41:55;100636.84;;;17.76;52.93
60319;BME280;46163;52.306;5.634;2022-12-24T05:44:20;100643.84;;;17.77;52.89
60319;BME280;46163;52.306;5.634;2022-12-24T05:46:46;100637.66;;;17.76;52.78
60319;BME280;46163;52.306;5.634;2022-12-24T05:49:12;100619.16;;;17.63;52.63
60319;BME280;46163;52.306;5.634;2022-12-24T05:51:38;100645.53;;;17.83;52.65
60319;BME280;46163;52.306;5.634;2022-12-24T05:54:07;100647.16;;;17.84;52.41
60319;BME280;46163;52.306;5.634;2022-12-24T05:56:32;100642.84;;;17.83;52.46
60319;BME280;46163;52.306;5.634;2022-12-24T05:58:58;100647.41;;;17.83;52.52
60319;BME280;46163;52.306;5.634;2022-12-24T06:01:24;100624.31;;;17.65;52.69
60319;BME280;46163;52.306;5.634;2022-12-24T06:03:56;100650.03;;;17.77;52.48
60319;BME280;46163;52.306;5.634;2022-12-24T06:06:25;100636.28;;;17.74;52.77
60319;BME280;46163;52.306;5.634;2022-12-24T06:08:52;100648.69;;;17.80;52.62
60319;BME280;46163;52.306;5.634;2022-12-24T06:11:21;100626.81;;;17.71;52.69
60319;BME280;46163;52.306;5.634;2022-12-24T06:13:46;100649.84;;;17.84;52.57
60319;BME280;46163;52.306;5.634;2022-12-24T06:16:15;100634.69;;;17.78;52.45
60319;BME280;46163;52.306;5.634;2022-12-24T06:18:42;100660.41;;;17.91;52.58
60319;BME280;46163;52.306;5.634;2022-12-24T06:21:10;100667.44;;;17.92;52.37
60319;BME280;46163;52.306;5.634;2022-12-24T06:23:37;100677.94;;;17.93;52.40
60319;BME280;46163;52.306;5.634;2022-12-24T06:26:04;100670.41;;;17.95;52.52
60319;BME280;46163;52.306;5.634;2022-12-24T06:28:35;100676.34;;;17.97;52.50
60319;BME280;46163;52.306;5.634;2022-12-24T06:31:03;100681.25;;;18.00;52.40
60319;BME280;46163;52.306;5.634;2022-12-24T06:33:33;100678.81;;;17.99;52.33
60319;BME280;46163;52.306;5.634;2022-12-24T06:36:00;100680.22;;;18.06;52.44
60319;BME280;46163;52.306;5.634;2022-12-24T06:38:33;100683.50;;;18.08;52.26
60319;BME280;46163;52.306;5.634;2022-12-24T06:40:58;100686.44;;;18.07;52.11
60319;BME280;46163;52.306;5.634;2022-12-24T06:43:24;100685.16;;;18.15;51.98
60319;BME280;46163;52.306;5.634;2022-12-24T06:45:51;100686.53;;;18.17;52.14
60319;BME280;46163;52.306;5.634;2022-12-24T06:48:18;100676.50;;;18.13;51.96
60319;BME280;46163;52.306;5.634;2022-12-24T06:50:44;100689.84;;;18.24;51.87
60319;BME280;46163;52.306;5.634;2022-12-24T06:53:10;100697.66;;;18.26;51.71
60319;BME280;46163;52.306;5.634;2022-12-24T06:55:35;100698.22;;;18.28;51.64
60319;BME280;46163;52.306;5.634;2022-12-24T06:58:00;100696.59;;;18.27;51.70
60319;BME280;46163;52.306;5.634;2022-12-24T07:00:26;100704.97;;;18.30;51.64
60319;BME280;46163;52.306;5.634;2022-12-24T07:02:52;100700.38;;;18.31;51.66
60319;BME280;46163;52.306;5.634;2022-12-24T07:05:18;100704.72;;;18.32;51.78
60319;BME280;46163;52.306;5.634;2022-12-24T07:07:44;100711.16;;;18.31;51.62
60319;BME280;46163;52.306;5.634;2022-12-24T07:10:12;100708.72;;;18.29;51.57
60319;BME280;46163;52.306;5.634;2022-12-24T07:12:38;100707.84;;;18.24;51.71
60319;BME280;46163;52.306;5.634;2022-12-24T07:15:04;100717.88;;;18.28;51.71
60319;BME280;46163;52.306;5.634;2022-12-24T07:17:30;100715.19;;;18.28;51.56
60319;BME280;46163;52.306;5.634;2022-12-24T07:19:55;100717.34;;;18.26;51.80
60319;BME280;46163;52.306;5.634;2022-12-24T07:22:20;100722.47;;;18.28;51.95
60319;BME280;46163;52.306;5.634;2022-12-24T07:24:46;100727.84;;;18.28;52.02
60319;BME280;46163;52.306;5.634;2022-12-24T07:27:11;100730.53;;;18.28;51.96
60319;BME280;46163;52.306;5.634;2022-12-24T07:29:37;100729.47;;;18.29;51.97
60319;BME280;46163;52.306;5.634;2022-12-24T07:32:03;100732.16;;;18.29;52.15
60319;BME280;46163;52.306;5.634;2022-12-24T07:34:29;100737.25;;;18.25;52.15
60319;BME280;46163;52.306;5.634;2022-12-24T07:36:54;100737.00;;;18.27;52.37
60319;BME280;46163;52.306;5.634;2022-12-24T07:39:20;100738.63;;;18.28;52.36
60319;BME280;46163;52.306;5.634;2022-12-24T07:41:46;100733.44;;;18.21;52.43
60319;BME280;46163;52.306;5.634;2022-12-24T07:44:13;100742.13;;;18.28;52.46
60319;BME280;46163;52.306;5.634;2022-12-24T07:46:40;100752.09;;;18.28;52.48
60319;BME280;46163;52.306;5.634;2022-12-24T07:49:06;100759.09;;;18.29;52.67
60319;BME280;46163;52.306;5.634;2022-12-24T07:51:32;100767.19;;;18.29;52.63
60319;BME280;46163;52.306;5.634;2022-12-24T07:53:57;100769.06;;;18.28;52.75
60319;BME280;46163;52.306;5.634;2022-12-24T07:56:24;100777.16;;;18.28;52.83
60319;BME280;46163;52.306;5.634;2022-12-24T07:58:50;100789.28;;;18.31;52.96
60319;BME280;46163;52.306;5.634;2022-12-24T08:01:17;100788.75;;;18.29;52.74
60319;BME280;46163;52.306;5.634;2022-12-24T08:03:43;100793.06;;;18.30;52.83
60319;BME280;46163;52.306;5.634;2022-12-24T08:06:08;100799.50;;;18.29;52.71
60319;BME280;46163;52.306;5.634;2022-12-24T08:08:35;100795.94;;;18.23;53.05
60319;BME280;46163;52.306;5.634;2022-12-24T08:11:02;100811.66;;;18.31;52.63
60319;BME280;46163;52.306;5.634;2022-12-24T08:13:28;100801.03;;;18.20;52.44
60319;BME280;46163;52.306;5.634;2022-12-24T08:15:54;100818.38;;;18.29;52.68
60319;BME280;46163;52.306;5.634;2022-12-24T08:18:19;100817.56;;;18.28;52.80
60319;BME280;46163;52.306;5.634;2022-12-24T08:20:45;100820.50;;;18.27;52.52
60319;BME280;46163;52.306;5.634;2022-12-24T08:23:10;100829.16;;;18.29;52.46
60319;BME280;46163;52.306;5.634;2022-12-24T08:25:36;100827.53;;;18.28;52.67
60319;BME280;46163;52.306;5.634;2022-12-24T08:28:04;100827.78;;;18.26;52.62
60319;BME280;46163;52.306;5.634;2022-12-24T08:30:29;100846.63;;;18.26;52.64
60319;BME280;46163;52.306;5.634;2022-12-24T08:32:55;100848.78;;;18.24;53.12
60319;BME280;46163;52.306;5.634;2022-12-24T08:35:20;100848.78;;;18.24;52.87
60319;BME280;46163;52.306;5.634;2022-12-24T08:37:48;100848.44;;;18.21;53.05
60319;BME280;46163;52.306;5.634;2022-12-24T08:40:14;100851.13;;;18.21;53.09
60319;BME280;46163;52.306;5.634;2022-12-24T08:42:39;100855.47;;;18.22;53.17
60319;BME280;46163;52.306;5.634;2022-12-24T08:45:06;100857.09;;;18.23;52.81
60319;BME280;46163;52.306;5.634;2022-12-24T08:47:31;100857.09;;;18.23;52.99
60319;BME280;46163;52.306;5.634;2022-12-24T08:49:57;100853.84;;;18.21;52.94
60319;BME280;46163;52.306;5.634;2022-12-24T08:52:22;100865.41;;;18.21;53.09
60319;BME280;46163;52.306;5.634;2022-12-24T08:54:48;100870.00;;;18.21;52.82
60319;BME280;46163;52.306;5.634;2022-12-24T08:57:13;100872.44;;;18.22;52.77
60319;BME280;46163;52.306;5.634;2022-12-24T08:59:40;100878.63;;;18.23;52.86
60319;BME280;46163;52.306;5.634;2022-12-24T09:02:05;100877.00;;;18.22;52.94
60319;BME280;46163;52.306;5.634;2022-12-24T09:04:31;100883.72;;;18.19;52.85
60319;BME280;46163;52.306;5.634;2022-12-24T09:06:56;100886.16;;;18.21;53.15
60319;BME280;46163;52.306;5.634;2022-12-24T09:09:22;100883.41;;;18.16;53.32
60319;BME280;46163;52.306;5.634;2022-12-24T09:11:47;100906.38;;;18.23;53.28
60319;BME280;46163;52.306;5.634;2022-12-24T09:14:13;100897.75;;;18.21;53.41
60319;BME280;46163;52.306;5.634;2022-12-24T09:16:38;100907.69;;;18.21;53.19
60319;BME280;46163;52.306;5.634;2022-12-24T09:19:03;100903.63;;;18.18;53.67
60319;BME280;46163;52.306;5.634;2022-12-24T09:21:30;100921.16;;;18.21;53.90
60319;BME280;46163;52.306;5.634;2022-12-24T09:23:55;100913.59;;;18.18;53.93
60319;BME280;46163;52.306;5.634;2022-12-24T09:26:25;100923.34;;;18.24;54.08
60319;BME280;46163;52.306;5.634;2022-12-24T09:28:51;100932.50;;;18.23;54.54
60319;BME280;46163;52.306;5.634;2022-12-24T09:31:18;100921.44;;;18.19;55.69
60319;BME280;46163;52.306;5.634;2022-12-24T09:33:46;100934.13;;;18.24;55.31
60319;BME280;46163;52.306;5.634;2022-12-24T09:36:12;100945.16;;;18.22;55.13
60319;BME280;46163;52.306;5.634;2022-12-24T09:38:39;100935.19;;;18.23;55.37
60319;BME280;46163;52.306;5.634;2022-12-24T09:43:58;100948.19;;;18.26;55.34
60319;BME280;46163;52.306;5.634;2022-12-24T09:46:29;100935.78;;;18.25;55.18
60319;BME280;46163;52.306;5.634;2022-12-24T09:49:01;100930.88;;;18.22;55.30
60319;BME280;46163;52.306;5.634;2022-12-24T09:56:40;100955.78;;;18.29;55.20
60319;BME280;46163;52.306;5.634;2022-12-24T09:59:15;100954.13;;;18.28;55.22
60319;BME280;46163;52.306;5.634;2022-12-24T10:01:41;100960.09;;;18.30;55.30
60319;BME280;46163;52.306;5.634;2022-12-24T10:04:13;100956.56;;;18.29;55.10
60319;BME280;46163;52.306;5.634;2022-12-24T10:09:55;100953.38;;;18.32;55.01
60319;BME280;46163;52.306;5.634;2022-12-24T10:12:27;100956.06;;;18.32;55.12
60319;BME280;46163;52.306;5.634;2022-12-24T10:17:27;100963.34;;;18.32;55.24
60319;BME280;46163;52.306;5.634;2022-12-24T10:28:12;100969.06;;;18.35;55.45
60319;BME280;46163;52.306;5.634;2022-12-24T10:30:39;100962.06;;;18.34;55.81
60319;BME280;46163;52.306;5.634;2022-12-24T10:33:15;100961.72;;;18.31;56.03
60319;BME280;46163;52.306;5.634;2022-12-24T10:35:47;100970.69;;;18.36;55.84
60319;BME280;46163;52.306;5.634;2022-12-24T10:38:14;100978.53;;;18.38;56.15
60319;BME280;46163;52.306;5.634;2022-12-24T10:40:43;100973.94;;;18.39;56.07
60319;BME280;46163;52.306;5.634;2022-12-24T10:43:23;100973.94;;;18.39;55.97
60319;BME280;46163;52.306;5.634;2022-12-24T10:45:59;100971.50;;;18.37;56.19
60319;BME280;46163;52.306;5.634;2022-12-24T10:48:32;100948.66;;;18.23;56.01
60319;BME280;46163;52.306;5.634;2022-12-24T10:54:00;100971.25;;;18.39;55.69
60319;BME280;46163;52.306;5.634;2022-12-24T10:56:31;100975.56;;;18.40;55.78
60319;BME280;46163;52.306;5.634;2022-12-24T10:58:59;100973.22;;;18.43;55.65
60319;BME280;46163;52.306;5.634;2022-12-24T11:01:45;100979.16;;;18.45;55.74
60319;BME280;46163;52.306;5.634;2022-12-24T11:04:16;100978.34;;;18.45;55.25
60319;BME280;46163;52.306;5.634;2022-12-24T11:06:59;100982.38;;;18.42;54.87
60319;BME280;46163;52.306;5.634;2022-12-24T11:11:56;100971.41;;;18.32;54.70
60319;BME280;46163;52.306;5.634;2022-12-24T11:14:23;100989.81;;;18.35;54.53
60319;BME280;46163;52.306;5.634;2022-12-24T11:16:54;100987.38;;;18.33;54.64
60319;BME280;46163;52.306;5.634;2022-12-24T11:22:22;100992.75;;;18.33;54.23
60319;BME280;46163;52.306;5.634;2022-12-24T11:25:18;100967.22;;;18.19;54.22
60319;BME280;46163;52.306;5.634;2022-12-24T11:27:46;100981.72;;;18.35;54.27
60319;BME280;46163;52.306;5.634;2022-12-24T11:33:16;100994.94;;;18.36;53.92
60319;BME280;46163;52.306;5.634;2022-12-24T11:35:47;101000.63;;;18.40;53.95
60319;BME280;46163;52.306;5.634;2022-12-24T11:38:19;101002.84;;;18.43;53.69
60319;BME280;46163;52.306;5.634;2022-12-24T11:40:48;100989.38;;;18.43;53.68
60319;BME280;46163;52.306;5.634;2022-12-24T11:43:20;100996.41;;;18.44;53.50
60319;BME280;46163;52.306;5.634;2022-12-24T11:45:54;101016.94;;;18.50;53.51
60319;BME280;46163;52.306;5.634;2022-12-24T11:48:31;101015.91;;;18.51;53.28
60319;BME280;46163;52.306;5.634;2022-12-24T11:51:03;101004.63;;;18.54;53.25
60319;BME280;46163;52.306;5.634;2022-12-24T11:53:46;101008.69;;;18.57;53.00
60319;BME280;46163;52.306;5.634;2022-12-24T11:56:23;101008.44;;;18.58;52.91
60319;BME280;46163;52.306;5.634;2022-12-24T11:58:59;101024.84;;;18.57;52.97
60319;BME280;46163;52.306;5.634;2022-12-24T12:01:46;101019.22;;;18.58;52.69
60319;BME280;46163;52.306;5.634;2022-12-24T12:04:34;101020.03;;;18.59;52.84
60319;BME280;46163;52.306;5.634;2022-12-24T12:07:00;101019.00;;;18.60;53.01
60319;BME280;46163;52.306;5.634;2022-12-24T12:12:24;101019.22;;;18.58;52.48
60319;BME280;46163;52.306;5.634;2022-12-24T12:15:00;101034.91;;;18.61;52.85
60319;BME280;46163;52.306;5.634;2022-12-24T12:17:35;101043.56;;;18.63;52.84
60319;BME280;46163;52.306;5.634;2022-12-24T12:20:20;101045.78;;;18.67;53.14
60319;BME280;46163;52.306;5.634;2022-12-24T12:25:43;101033.91;;;18.68;53.49
60319;BME280;46163;52.306;5.634;2022-12-24T12:28:27;101026.25;;;18.59;53.26
60319;BME280;46163;52.306;5.634;2022-12-24T12:31:10;101044.13;;;18.66;53.42
60319;BME280;46163;52.306;5.634;2022-12-24T12:34:02;101045.19;;;18.64;52.99
60319;BME280;46163;52.306;5.634;2022-12-24T12:36:45;101028.38;;;18.57;53.21
60319;BME280;46163;52.306;5.634;2022-12-24T12:39:11;101058.50;;;18.71;53.38
60319;BME280;46163;52.306;5.634;2022-12-24T13:03:49;101067.69;;;18.92;53.56
60319;BME280;46163;52.306;5.634;2022-12-24T13:09:31;101056.59;;;18.88;53.56
60319;BME280;46163;52.306;5.634;2022-12-24T13:14:50;101077.22;;;19.00;53.76
60319;BME280;46163;52.306;5.634;2022-12-24T13:22:24;101089.97;;;19.04;53.56
60319;BME280;46163;52.306;5.634;2022-12-24T13:24:53;101090.78;;;19.05;53.63
60319;BME280;46163;52.306;5.634;2022-12-24T13:30:03;101094.84;;;19.07;53.35
60319;BME280;46163;52.306;5.634;2022-12-24T13:32:39;101087.00;;;19.06;53.21
60319;BME280;46163;52.306;5.634;2022-12-24T13:37:49;101098.63;;;19.06;53.23
60319;BME280;46163;52.306;5.634;2022-12-24T13:43:06;101105.72;;;19.12;53.14
60319;BME280;46163;52.306;5.634;2022-12-24T13:48:17;101112.19;;;19.11;53.14
60319;BME280;46163;52.306;5.634;2022-12-24T13:50:48;101122.13;;;19.11;53.27
60319;BME280;46163;52.306;5.634;2022-12-24T13:53:40;101132.09;;;19.10;53.24
60319;BME280;46163;52.306;5.634;2022-12-24T13:56:08;101133.97;;;19.10;53.14
60319;BME280;46163;52.306;5.634;2022-12-24T13:58:50;101130.47;;;19.09;53.37
60319;BME280;46163;52.306;5.634;2022-12-24T14:01:38;101135.31;;;19.07;53.37
60319;BME280;46163;52.306;5.634;2022-12-24T14:04:05;101139.25;;;19.00;53.55
60319;BME280;46163;52.306;5.634;2022-12-24T14:06:41;101154.69;;;19.04;53.54
60319;BME280;46163;52.306;5.634;2022-12-24T14:09:13;101143.31;;;19.02;53.46
60319;BME280;46163;52.306;5.634;2022-12-24T14:14:40;101152.25;;;19.03;53.92
60319;BME280;46163;52.306;5.634;2022-12-24T14:19:47;101156.75;;;18.97;54.22
60319;BME280;46163;52.306;5.634;2022-12-24T14:22:33;101158.94;;;19.00;54.38
60319;BME280;46163;52.306;5.634;2022-12-24T14:25:08;101164.84;;;18.97;54.60
60319;BME280;46163;52.306;5.634;2022-12-24T14:27:45;101163.22;;;18.96;54.67
60319;BME280;46163;52.306;5.634;2022-12-24T14:30:22;101161.09;;;18.98;54.66
60319;BME280;46163;52.306;5.634;2022-12-24T14:32:49;101169.81;;;19.05;54.88
60319;BME280;46163;52.306;5.634;2022-12-24T14:35:18;101155.53;;;19.05;54.47
60319;BME280;46163;52.306;5.634;2022-12-24T14:37:46;101163.34;;;19.06;54.66
60319;BME280;46163;52.306;5.634;2022-12-24T14:40:24;101164.97;;;19.07;54.45
60319;BME280;46163;52.306;5.634;2022-12-24T14:48:39;101178.72;;;19.06;53.93
60319;BME280;46163;52.306;5.634;2022-12-24T14:51:37;101181.44;;;19.06;53.30
60319;BME280;46163;52.306;5.634;2022-12-24T14:54:32;101181.34;;;19.01;53.35
60319;BME280;46163;52.306;5.634;2022-12-24T14:59:51;101193.53;;;19.03;53.22